createdAt,value
2023-04-18T00:01:40.882Z,13.13
2023-04-18T00:04:10.749Z,13.08
2023-04-18T00:06:38.964Z,13.05
2023-04-18T00:09:07.151Z,13.02
2023-04-18T00:11:35.601Z,12.99
2023-04-18T00:14:04.457Z,12.93
2023-04-18T00:16:33.163Z,12.92
2023-04-18T00:19:02.398Z,12.90
2023-04-18T00:21:32.033Z,12.83
2023-04-18T00:24:00.213Z,12.80
2023-04-18T00:26:28.457Z,12.78
2023-04-18T00:28:56.509Z,12.70
2023-04-18T00:31:24.640Z,12.57
2023-04-18T00:33:52.725Z,12.51
2023-04-18T00:36:20.817Z,12.43
2023-04-18T00:38:50.306Z,12.38
2023-04-18T00:41:18.389Z,12.34
2023-04-18T00:43:46.474Z,12.30
2023-04-18T00:46:14.686Z,12.27
2023-04-18T00:48:42.794Z,12.25
2023-04-18T00:51:11.152Z,12.26
2023-04-18T00:53:39.469Z,12.27
2023-04-18T00:56:09.050Z,12.25
2023-04-18T00:58:37.202Z,12.22
2023-04-18T01:01:05.846Z,12.20
2023-04-18T01:03:34.965Z,12.20
2023-04-18T01:06:03.242Z,12.20
2023-04-18T01:08:31.478Z,12.20
2023-04-18T01:10:59.497Z,12.16
2023-04-18T01:13:28.882Z,12.10
2023-04-18T01:15:57.042Z,12.01
2023-04-18T01:18:25.532Z,11.94
2023-04-18T01:20:57.097Z,11.94
2023-04-18T01:23:25.274Z,11.97
2023-04-18T01:25:54.765Z,11.93
2023-04-18T01:28:22.992Z,11.94
2023-04-18T01:30:51.168Z,11.90
2023-04-18T01:33:19.143Z,11.88
2023-04-18T01:35:47.137Z,11.86
2023-04-18T01:38:15.232Z,11.87
2023-04-18T01:40:43.342Z,11.78
2023-04-18T01:43:12.843Z,11.82
2023-04-18T01:45:40.967Z,11.80
2023-04-18T01:48:09.163Z,11.74
2023-04-18T01:50:37.242Z,11.72
2023-04-18T01:53:05.323Z,11.69
2023-04-18T01:55:33.547Z,11.70
2023-04-18T01:58:01.671Z,11.71
2023-04-18T02:00:31.082Z,11.70
2023-04-18T02:03:00.414Z,11.65
2023-04-18T02:05:28.606Z,11.62
2023-04-18T02:07:56.608Z,11.59
2023-04-18T02:10:25.808Z,11.54
2023-04-18T02:12:54.100Z,11.50
2023-04-18T02:15:22.624Z,11.46
2023-04-18T02:17:52.180Z,11.41
2023-04-18T02:20:20.360Z,11.38
2023-04-18T02:22:48.642Z,11.35
2023-04-18T02:25:16.681Z,11.34
2023-04-18T02:27:44.696Z,11.33
2023-04-18T02:30:13.100Z,11.32
2023-04-18T02:32:41.203Z,11.30
2023-04-18T02:35:12.640Z,11.29
2023-04-18T02:37:40.647Z,11.24
2023-04-18T02:40:10.260Z,11.19
2023-04-18T02:42:38.261Z,11.15
2023-04-18T02:45:07.608Z,11.13
2023-04-18T02:47:43.881Z,11.10
2023-04-18T02:50:21.112Z,11.08
2023-04-18T02:52:49.106Z,11.06
2023-04-18T02:55:17.572Z,11.03
2023-04-18T02:57:45.929Z,11.02
2023-04-18T03:00:15.259Z,11.01
2023-04-18T03:02:43.528Z,10.97
2023-04-18T03:05:11.743Z,10.97
2023-04-18T03:07:41.232Z,10.98
2023-04-18T03:10:09.953Z,10.97
2023-04-18T03:12:38.058Z,10.94
2023-04-18T03:15:07.208Z,10.86
2023-04-18T03:17:35.434Z,10.83
2023-04-18T03:20:03.523Z,10.79
2023-04-18T03:22:31.522Z,10.78
2023-04-18T03:25:01.306Z,10.77
2023-04-18T03:27:29.354Z,10.76
2023-04-18T03:29:57.408Z,10.73
2023-04-18T03:32:25.982Z,10.72
2023-04-18T03:34:54.198Z,10.71
2023-04-18T03:37:22.277Z,10.66
2023-04-18T03:39:50.438Z,10.62
2023-04-18T03:42:19.859Z,10.59
2023-04-18T03:44:47.956Z,10.56
2023-04-18T03:47:16.996Z,10.55
2023-04-18T03:49:45.012Z,10.51
2023-04-18T03:52:13.227Z,10.50
2023-04-18T03:54:41.319Z,10.50
2023-04-18T03:57:09.497Z,10.49
2023-04-18T03:59:38.968Z,10.45
2023-04-18T04:02:07.085Z,10.41
2023-04-18T04:04:35.159Z,10.39
2023-04-18T04:07:03.370Z,10.34
2023-04-18T04:09:31.471Z,10.27
2023-04-18T04:11:59.559Z,10.20
2023-04-18T04:14:27.599Z,10.11
2023-04-18T04:16:57.185Z,9.96
2023-04-18T04:19:25.378Z,9.89
2023-04-18T04:21:53.558Z,9.81
2023-04-18T04:24:22.787Z,9.76
2023-04-18T04:26:51.558Z,9.77
2023-04-18T04:29:21.636Z,9.79
2023-04-18T04:31:49.690Z,9.80
2023-04-18T04:34:19.201Z,9.78
2023-04-18T04:36:48.224Z,9.77
2023-04-18T04:39:17.521Z,9.71
2023-04-18T04:41:47.276Z,9.71
2023-04-18T04:44:18.034Z,9.73
2023-04-18T04:46:46.149Z,9.77
2023-04-18T04:49:14.197Z,9.79
2023-04-18T04:51:44.418Z,9.84
2023-04-18T04:54:12.782Z,9.85
2023-04-18T04:56:41.080Z,9.91
2023-04-18T04:59:09.089Z,9.94
2023-04-18T05:01:37.125Z,9.96
2023-04-18T05:04:05.623Z,9.96
2023-04-18T05:06:34.014Z,9.91
2023-04-18T05:09:03.536Z,9.96
2023-04-18T05:11:31.649Z,10.00
2023-04-18T05:13:59.790Z,9.96
2023-04-18T05:16:28.143Z,9.89
2023-04-18T05:18:56.200Z,9.86
2023-04-18T05:21:26.114Z,9.89
2023-04-18T05:23:54.190Z,9.90
2023-04-18T05:26:24.533Z,9.88
2023-04-18T05:28:52.790Z,9.83
2023-04-18T05:31:21.103Z,9.83
2023-04-18T05:33:49.201Z,9.84
2023-04-18T05:36:17.317Z,9.83
2023-04-18T05:38:45.453Z,9.84
2023-04-18T05:41:13.725Z,9.80
2023-04-18T05:43:46.345Z,9.69
2023-04-18T05:46:22.662Z,9.69
2023-04-18T05:48:50.680Z,9.67
2023-04-18T05:51:18.807Z,9.66
2023-04-18T05:53:46.864Z,9.65
2023-04-18T05:56:15.118Z,9.68
2023-04-18T05:58:45.659Z,9.70
2023-04-18T06:01:15.008Z,9.68
2023-04-18T06:03:43.236Z,9.60
2023-04-18T06:06:11.765Z,9.55
2023-04-18T06:08:40.372Z,9.50
2023-04-18T06:11:09.089Z,9.51
2023-04-18T06:13:37.659Z,9.53
2023-04-18T06:16:07.792Z,9.58
2023-04-18T06:18:35.926Z,9.64
2023-04-18T06:21:04.075Z,9.67
2023-04-18T06:23:32.693Z,9.71
2023-04-18T06:26:01.477Z,9.78
2023-04-18T06:28:29.567Z,9.84
2023-04-18T06:30:57.752Z,9.85
2023-04-18T06:33:27.196Z,9.83
2023-04-18T06:35:55.274Z,9.82
2023-04-18T06:38:23.572Z,9.78
2023-04-18T06:40:51.778Z,9.77
2023-04-18T06:43:22.293Z,9.79
2023-04-18T06:45:50.390Z,9.82
2023-04-18T06:48:18.447Z,9.86
2023-04-18T06:50:47.881Z,9.93
2023-04-18T06:53:16.121Z,10.06
2023-04-18T06:55:44.650Z,10.16
2023-04-18T06:58:13.908Z,10.26
2023-04-18T07:00:42.169Z,10.35
2023-04-18T07:03:13.703Z,10.40
2023-04-18T07:05:42.213Z,10.56
2023-04-18T07:08:11.596Z,11.76
2023-04-18T07:10:39.651Z,13.83
2023-04-18T07:13:07.797Z,15.91
2023-04-18T07:15:36.173Z,18.01
2023-04-18T07:18:04.440Z,19.72
2023-04-18T07:20:32.671Z,21.13
2023-04-18T07:23:00.804Z,22.35
2023-04-18T07:25:30.394Z,23.39
2023-04-18T07:27:58.703Z,24.36
2023-04-18T07:30:26.827Z,25.18
2023-04-18T07:32:55.046Z,25.83
2023-04-18T07:35:23.206Z,26.23
2023-04-18T07:37:51.394Z,26.47
2023-04-18T07:40:19.584Z,26.66
2023-04-18T07:42:49.202Z,27.05
2023-04-18T07:45:17.833Z,27.43
2023-04-18T07:47:46.171Z,27.88
2023-04-18T07:50:14.282Z,28.30
2023-04-18T07:52:42.500Z,28.82
2023-04-18T07:55:11.162Z,29.31
2023-04-18T07:57:39.318Z,29.64
2023-04-18T08:00:10.544Z,29.69
2023-04-18T08:02:38.844Z,29.89
2023-04-18T08:05:08.164Z,30.23
2023-04-18T08:07:36.395Z,30.39
2023-04-18T08:10:05.089Z,30.43
2023-04-18T08:12:33.287Z,30.39
2023-04-18T08:15:01.528Z,30.24
2023-04-18T08:17:31.252Z,30.18
2023-04-18T08:19:59.377Z,30.22
2023-04-18T08:22:27.565Z,30.64
2023-04-18T08:25:04.478Z,31.31
2023-04-18T08:27:33.862Z,31.89
2023-04-18T08:30:04.143Z,32.52
2023-04-18T08:32:34.181Z,33.17
2023-04-18T08:35:02.373Z,34.16
2023-04-18T08:37:31.229Z,34.43
2023-04-18T08:39:59.351Z,34.66
2023-04-18T08:42:28.449Z,35.16
2023-04-18T08:44:57.912Z,35.49
2023-04-18T08:47:26.057Z,35.70
2023-04-18T08:49:57.410Z,35.89
2023-04-18T08:52:27.283Z,36.40
2023-04-18T08:54:57.201Z,37.13
2023-04-18T08:57:27.277Z,37.75
2023-04-18T08:59:55.894Z,38.26
2023-04-18T09:02:38.867Z,38.45
2023-04-18T09:05:14.534Z,38.51
2023-04-18T09:07:44.051Z,38.66
2023-04-18T09:10:12.859Z,38.84
2023-04-18T09:12:49.962Z,38.98
2023-04-18T09:15:20.273Z,38.56
2023-04-18T09:17:51.354Z,38.79
2023-04-18T09:20:34.810Z,39.30
2023-04-18T09:23:05.419Z,39.84
2023-04-18T09:25:36.116Z,40.00
2023-04-18T09:28:05.456Z,40.61
2023-04-18T09:30:37.061Z,41.30
2023-04-18T09:33:07.698Z,41.96
2023-04-18T09:35:38.086Z,42.61
2023-04-18T09:38:07.360Z,42.77
2023-04-18T09:40:35.538Z,42.96
2023-04-18T09:43:19.373Z,43.31
2023-04-18T09:45:48.841Z,43.85
2023-04-18T09:48:16.980Z,44.22
2023-04-18T09:50:48.907Z,44.74
2023-04-18T09:53:20.946Z,45.46
2023-04-18T09:55:53.033Z,45.87
2023-04-18T09:58:23.823Z,46.65
2023-04-18T10:00:54.420Z,47.02
2023-04-18T10:03:26.212Z,46.84
2023-04-18T10:05:57.801Z,47.60
2023-04-18T10:08:27.541Z,48.44
2023-04-18T10:10:58.744Z,49.49
2023-04-18T10:13:29.359Z,49.55
2023-04-18T10:15:58.034Z,50.15
2023-04-18T10:18:26.307Z,48.44
2023-04-18T10:21:02.747Z,47.10
2023-04-18T10:23:38.698Z,47.47
2023-04-18T10:26:07.910Z,48.42
2023-04-18T10:28:53.349Z,49.46
2023-04-18T10:31:23.467Z,49.90
2023-04-18T10:34:03.918Z,49.68
2023-04-18T10:36:35.090Z,49.37
2023-04-18T10:39:20.978Z,47.74
2023-04-18T10:41:51.265Z,45.18
2023-04-18T10:44:22.936Z,45.14
2023-04-18T10:47:24.485Z,44.47
2023-04-18T10:49:58.240Z,42.02
2023-04-18T10:52:28.738Z,38.96
2023-04-18T10:55:04.350Z,36.58
2023-04-18T10:57:40.155Z,34.29
2023-04-18T11:00:12.072Z,32.47
2023-04-18T11:02:40.551Z,31.47
2023-04-18T11:05:10.206Z,30.33
2023-04-18T11:07:40.902Z,29.78
2023-04-18T11:10:10.730Z,29.18
2023-04-18T11:12:40.151Z,28.40
2023-04-18T11:15:12.762Z,27.77
2023-04-18T11:17:42.047Z,26.82
2023-04-18T11:20:12.925Z,26.29
2023-04-18T11:22:49.951Z,25.78
2023-04-18T11:25:19.155Z,25.35
2023-04-18T11:27:49.140Z,25.14
2023-04-18T11:30:17.371Z,24.98
2023-04-18T11:32:45.648Z,24.93
2023-04-18T11:35:15.199Z,24.99
2023-04-18T11:37:45.559Z,25.15
2023-04-18T11:40:15.704Z,25.16
2023-04-18T11:42:43.967Z,25.20
2023-04-18T11:45:13.637Z,25.13
2023-04-18T11:47:43.308Z,25.02
2023-04-18T11:50:13.473Z,24.87
2023-04-18T11:52:43.631Z,24.73
2023-04-18T11:55:19.203Z,24.66
2023-04-18T11:57:57.696Z,24.60
2023-04-18T12:00:34.702Z,24.56
2023-04-18T12:03:04.559Z,24.55
2023-04-18T12:05:36.022Z,24.54
2023-04-18T12:08:08.501Z,24.62
2023-04-18T12:10:38.302Z,24.61
2023-04-18T12:13:09.297Z,24.53
2023-04-18T12:15:40.569Z,24.41
2023-04-18T12:18:09.646Z,24.38
2023-04-18T12:20:39.504Z,24.43
2023-04-18T12:23:08.148Z,24.42
2023-04-18T12:25:38.575Z,24.26
2023-04-18T12:28:16.835Z,24.17
2023-04-18T12:30:45.068Z,24.14
2023-04-18T12:33:13.571Z,24.15
2023-04-18T12:35:42.625Z,24.11
2023-04-18T12:38:11.113Z,24.02
2023-04-18T12:40:41.844Z,24.00
2023-04-18T12:43:11.367Z,24.00
2023-04-18T12:45:39.666Z,24.11
2023-04-18T12:48:08.121Z,24.18
2023-04-18T12:50:36.406Z,24.12
2023-04-18T12:53:05.079Z,24.02
2023-04-18T12:55:33.342Z,23.86
2023-04-18T12:58:03.038Z,23.61
2023-04-18T13:00:33.208Z,23.33
2023-04-18T13:03:01.688Z,23.13
2023-04-18T13:05:33.444Z,23.07
2023-04-18T13:08:15.365Z,23.15
2023-04-18T13:10:44.771Z,23.32
2023-04-18T13:13:14.795Z,23.43
2023-04-18T13:15:43.066Z,23.54
2023-04-18T13:18:11.208Z,23.53
2023-04-18T13:20:39.367Z,23.49
2023-04-18T13:23:07.467Z,23.51
2023-04-18T13:25:35.739Z,23.45
2023-04-18T13:28:04.051Z,23.30
2023-04-18T13:30:35.748Z,23.24
2023-04-18T13:33:04.207Z,23.16
2023-04-18T13:35:32.531Z,23.11
2023-04-18T13:38:00.744Z,23.01
2023-04-18T13:40:28.899Z,22.91
2023-04-18T13:42:57.055Z,22.82
2023-04-18T13:45:25.210Z,22.74
2023-04-18T13:47:54.874Z,22.73
2023-04-18T13:50:23.299Z,22.73
2023-04-18T13:52:52.135Z,22.79
2023-04-18T13:55:20.300Z,22.85
2023-04-18T13:57:48.402Z,22.94
2023-04-18T14:00:17.630Z,23.01
2023-04-18T14:02:45.940Z,23.00
2023-04-18T14:05:15.632Z,22.94
2023-04-18T14:07:43.771Z,22.73
2023-04-18T14:10:12.629Z,22.57
2023-04-18T14:12:41.259Z,22.40
2023-04-18T14:15:10.914Z,22.20
2023-04-18T14:17:39.105Z,21.99
2023-04-18T14:20:08.717Z,21.90
2023-04-18T14:22:38.343Z,21.84
2023-04-18T14:25:08.564Z,21.71
2023-04-18T14:27:37.540Z,21.54
2023-04-18T14:30:08.780Z,21.40
2023-04-18T14:32:37.084Z,21.30
2023-04-18T14:35:07.260Z,21.23
2023-04-18T14:37:35.550Z,21.17
2023-04-18T14:40:07.018Z,21.14
2023-04-18T14:42:35.241Z,21.20
2023-04-18T14:45:05.285Z,21.36
2023-04-18T14:47:34.803Z,21.53
2023-04-18T14:50:03.197Z,21.74
2023-04-18T14:52:31.428Z,21.89
2023-04-18T14:54:59.627Z,22.12
2023-04-18T14:57:29.425Z,22.29
2023-04-18T14:59:57.797Z,22.38
2023-04-18T15:02:26.194Z,22.38
2023-04-18T15:04:54.901Z,22.39
2023-04-18T15:07:23.240Z,22.33
2023-04-18T15:09:52.219Z,22.33
2023-04-18T15:12:20.365Z,22.36
2023-04-18T15:14:49.971Z,22.38
2023-04-18T15:17:18.033Z,22.37
2023-04-18T15:19:46.292Z,22.41
2023-04-18T15:22:14.547Z,22.35
2023-04-18T15:24:42.727Z,22.32
2023-04-18T15:27:11.000Z,22.23
2023-04-18T15:29:39.296Z,22.15
2023-04-18T15:32:09.947Z,22.11
2023-04-18T15:34:38.186Z,22.12
2023-04-18T15:37:06.582Z,22.05
2023-04-18T15:39:34.781Z,22.03
2023-04-18T15:42:03.071Z,21.94
2023-04-18T15:44:31.737Z,21.91
2023-04-18T15:47:01.245Z,21.94
2023-04-18T15:49:31.231Z,21.93
2023-04-18T15:51:59.381Z,21.97
2023-04-18T15:54:27.570Z,22.04
2023-04-18T15:56:56.300Z,22.03
2023-04-18T15:59:24.541Z,22.02
2023-04-18T16:01:52.952Z,22.06
2023-04-18T16:04:21.274Z,22.05
2023-04-18T16:06:50.978Z,22.01
2023-04-18T16:09:19.224Z,22.00
2023-04-18T16:11:47.425Z,22.05
2023-04-18T16:14:15.724Z,22.07
2023-04-18T16:16:44.071Z,22.05
2023-04-18T16:19:12.451Z,22.03
2023-04-18T16:21:40.580Z,22.00
2023-04-18T16:24:10.472Z,22.02
2023-04-18T16:26:38.661Z,22.02
2023-04-18T16:29:07.136Z,22.01
2023-04-18T16:31:35.327Z,22.06
2023-04-18T16:34:04.176Z,22.08
2023-04-18T16:36:34.760Z,22.09
2023-04-18T16:39:02.882Z,22.04
2023-04-18T16:41:32.621Z,22.11
2023-04-18T16:44:00.857Z,22.04
2023-04-18T16:46:31.487Z,22.02
2023-04-18T16:49:01.634Z,21.97
2023-04-18T16:51:30.169Z,21.97
2023-04-18T16:53:58.392Z,21.95
2023-04-18T16:56:26.635Z,21.89
2023-04-18T16:58:56.370Z,21.81
2023-04-18T17:01:24.580Z,21.62
2023-04-18T17:03:52.954Z,21.39
2023-04-18T17:06:23.045Z,21.16
2023-04-18T17:08:53.596Z,20.92
2023-04-18T17:11:21.988Z,20.67
2023-04-18T17:13:51.544Z,20.45
2023-04-18T17:16:21.219Z,20.20
2023-04-18T17:18:49.368Z,20.01
2023-04-18T17:21:17.535Z,19.83
2023-04-18T17:23:53.492Z,19.71
2023-04-18T17:26:22.748Z,19.55
2023-04-18T17:28:50.933Z,19.44
2023-04-18T17:31:20.497Z,19.28
2023-04-18T17:33:50.584Z,19.15
2023-04-18T17:36:18.922Z,18.93
2023-04-18T17:38:49.029Z,18.80
2023-04-18T17:41:17.893Z,18.76
2023-04-18T17:43:46.996Z,18.72
2023-04-18T17:46:15.769Z,18.62
2023-04-18T17:48:45.582Z,18.56
2023-04-18T17:51:13.704Z,18.42
2023-04-18T17:53:41.876Z,18.31
2023-04-18T17:56:11.413Z,18.24
2023-04-18T17:58:39.581Z,18.12
2023-04-18T18:01:15.511Z,18.00
2023-04-18T18:03:46.075Z,17.91
2023-04-18T18:06:15.666Z,17.83
2023-04-18T18:08:44.834Z,17.75
2023-04-18T18:11:13.045Z,17.69
2023-04-18T18:13:41.193Z,17.65
2023-04-18T18:16:09.696Z,17.62
2023-04-18T18:18:38.268Z,17.61
2023-04-18T18:21:07.923Z,17.59
2023-04-18T18:23:36.035Z,17.55
2023-04-18T18:26:04.237Z,17.52
2023-04-18T18:28:32.369Z,17.47
2023-04-18T18:31:00.793Z,17.49
2023-04-18T18:33:29.070Z,17.50
2023-04-18T18:35:58.631Z,17.50
2023-04-18T18:38:28.280Z,17.46
2023-04-18T18:40:56.402Z,17.40
2023-04-18T18:43:26.404Z,17.33
2023-04-18T18:45:54.648Z,17.31
2023-04-18T18:48:22.865Z,17.28
2023-04-18T18:50:51.499Z,17.27
2023-04-18T18:53:19.672Z,17.27
2023-04-18T18:55:49.195Z,17.24
2023-04-18T18:58:17.409Z,17.23
2023-04-18T19:00:46.947Z,17.19
2023-04-18T19:03:18.492Z,17.14
2023-04-18T19:05:47.043Z,17.04
2023-04-18T19:08:15.630Z,16.96
2023-04-18T19:10:43.929Z,16.90
2023-04-18T19:13:13.605Z,16.90
2023-04-18T19:15:41.788Z,16.92
2023-04-18T19:18:10.012Z,16.92
2023-04-18T19:20:40.377Z,16.91
2023-04-18T19:23:08.647Z,16.85
2023-04-18T19:25:37.012Z,16.86
2023-04-18T19:28:05.995Z,16.75
2023-04-18T19:30:35.753Z,16.65
2023-04-18T19:33:04.300Z,16.58
2023-04-18T19:35:32.557Z,16.52
2023-04-18T19:38:02.320Z,16.47
2023-04-18T19:40:30.697Z,16.41
2023-04-18T19:42:59.202Z,16.38
2023-04-18T19:45:27.560Z,16.41
2023-04-18T19:47:57.317Z,16.39
2023-04-18T19:50:25.657Z,16.41
2023-04-18T19:52:53.868Z,16.43
2023-04-18T19:55:22.455Z,16.43
2023-04-18T19:57:55.638Z,16.38
2023-04-18T20:00:24.148Z,16.38
2023-04-18T20:02:52.964Z,16.34
2023-04-18T20:05:23.267Z,16.32
2023-04-18T20:07:51.487Z,16.32
2023-04-18T20:10:22.569Z,16.31
2023-04-18T20:12:50.878Z,16.30
2023-04-18T20:15:19.209Z,16.26
2023-04-18T20:17:47.618Z,16.20
2023-04-18T20:20:15.877Z,16.15
2023-04-18T20:22:47.506Z,16.12
2023-04-18T20:25:15.798Z,16.13
2023-04-18T20:27:43.932Z,16.11
2023-04-18T20:30:12.663Z,16.07
2023-04-18T20:32:41.124Z,16.02
2023-04-18T20:35:10.007Z,16.02
2023-04-18T20:37:39.114Z,16.03
2023-04-18T20:40:10.014Z,15.99
2023-04-18T20:42:38.983Z,15.97
2023-04-18T20:45:11.292Z,15.93
2023-04-18T20:47:41.308Z,15.89
2023-04-18T20:50:10.742Z,15.88
2023-04-18T20:52:38.957Z,15.85
2023-04-18T20:55:09.383Z,15.83
2023-04-18T20:57:38.878Z,15.77
2023-04-18T21:00:10.693Z,15.71
2023-04-18T21:02:39.294Z,15.64
2023-04-18T21:05:08.195Z,15.57
2023-04-18T21:07:36.898Z,15.56
2023-04-18T21:10:05.481Z,15.55
2023-04-18T21:12:35.175Z,15.56
2023-04-18T21:15:05.553Z,15.56
2023-04-18T21:17:33.775Z,15.48
2023-04-18T21:20:01.967Z,15.47
2023-04-18T21:22:30.168Z,15.45
2023-04-18T21:24:58.360Z,15.41
2023-04-18T21:27:26.573Z,15.35
2023-04-18T21:29:56.178Z,15.35
2023-04-18T21:32:24.286Z,15.34
2023-04-18T21:34:52.657Z,15.33
2023-04-18T21:37:20.863Z,15.27
2023-04-18T21:39:49.014Z,15.20
2023-04-18T21:42:17.167Z,15.08
2023-04-18T21:44:45.291Z,14.93
2023-04-18T21:47:15.011Z,14.79
2023-04-18T21:49:43.316Z,14.64
2023-04-18T21:52:11.604Z,14.56
2023-04-18T21:54:40.412Z,14.48
2023-04-18T21:57:08.673Z,14.49
2023-04-18T21:59:36.888Z,14.47
2023-04-18T22:02:05.235Z,14.40
2023-04-18T22:04:35.210Z,14.39
2023-04-18T22:07:03.437Z,14.38
2023-04-18T22:09:33.959Z,14.36
2023-04-18T22:12:03.509Z,14.34
2023-04-18T22:14:32.687Z,14.25
2023-04-18T22:17:03.271Z,14.23
2023-04-18T22:19:31.580Z,14.24
2023-04-18T22:22:01.694Z,14.23
2023-04-18T22:24:30.792Z,14.26
2023-04-18T22:26:58.931Z,14.23
2023-04-18T22:29:27.133Z,14.16
2023-04-18T22:31:55.377Z,14.09
2023-04-18T22:34:23.625Z,14.03
2023-04-18T22:36:51.735Z,13.99
2023-04-18T22:39:21.182Z,13.93
2023-04-18T22:41:49.365Z,13.95
2023-04-18T22:44:17.874Z,13.93
2023-04-18T22:46:48.212Z,13.94
2023-04-18T22:49:18.334Z,13.96
2023-04-18T22:51:47.453Z,13.98
2023-04-18T22:54:16.062Z,13.95
2023-04-18T22:56:45.939Z,13.92
2023-04-18T22:59:14.388Z,13.84
2023-04-18T23:01:42.600Z,13.72
2023-04-18T23:04:11.112Z,13.71
2023-04-18T23:06:39.540Z,13.67
2023-04-18T23:09:09.276Z,13.61
2023-04-18T23:11:37.379Z,13.60
2023-04-18T23:14:08.716Z,13.58
2023-04-18T23:16:36.896Z,13.53
2023-04-18T23:19:05.457Z,13.56
2023-04-18T23:21:33.685Z,13.54
2023-04-18T23:24:01.934Z,13.50
2023-04-18T23:26:30.081Z,13.44
2023-04-18T23:28:58.184Z,13.36
2023-04-18T23:31:27.942Z,13.27
2023-04-18T23:33:57.085Z,13.24
2023-04-18T23:36:25.927Z,13.17
2023-04-18T23:38:54.110Z,13.20
2023-04-18T23:41:22.258Z,13.19
2023-04-18T23:43:50.370Z,13.19
2023-04-18T23:46:19.022Z,13.18
2023-04-18T23:48:48.723Z,13.16
2023-04-18T23:51:16.849Z,13.20
2023-04-18T23:53:45.125Z,13.20
2023-04-18T23:56:13.443Z,13.20
2023-04-18T23:58:41.664Z,13.18
